createdAt,value
2022-07-31T00:02:55.011Z,98245.75
2022-07-31T00:06:57.034Z,98248.41
2022-07-31T00:10:59.206Z,98246.03
2022-07-31T00:15:03.252Z,98236.91
2022-07-31T00:19:05.395Z,98232.84
2022-07-31T00:23:07.454Z,98241.47
2022-07-31T00:27:11.594Z,98234.75
2022-07-31T00:31:13.805Z,98230.06
2022-07-31T00:35:16.401Z,98224.34
2022-07-31T00:39:18.461Z,98224.94
2022-07-31T00:43:20.550Z,98220.72
2022-07-31T00:47:25.514Z,98223.06
2022-07-31T00:51:28.062Z,98219.47
2022-07-31T00:55:30.268Z,98223.53
2022-07-31T00:59:50.563Z,98216.34
2022-07-31T01:03:53.493Z,98216.13
2022-07-31T01:07:55.510Z,98216.31
2022-07-31T01:12:05.880Z,98212.53
2022-07-31T01:16:11.058Z,98216.84
2022-07-31T01:20:14.201Z,98211.66
2022-07-31T01:24:39.990Z,98209.31
2022-07-31T01:29:00.433Z,98207.72
2022-07-31T01:33:08.446Z,98204.63
2022-07-31T01:37:39.887Z,98201.19
2022-07-31T01:41:47.374Z,98201.41
2022-07-31T01:45:55.510Z,98199.09
2022-07-31T01:50:00.004Z,98189.94
2022-07-31T01:54:03.383Z,98180.63
2022-07-31T01:58:06.927Z,98180.00
2022-07-31T02:02:10.007Z,98175.69
2022-07-31T02:06:15.455Z,98175.03
2022-07-31T02:10:19.736Z,98176.44
2022-07-31T02:14:24.888Z,98174.19
2022-07-31T02:18:27.613Z,98175.78
2022-07-31T02:22:48.357Z,98172.06
2022-07-31T02:26:51.628Z,98176.13
2022-07-31T02:30:54.280Z,98175.16
2022-07-31T02:35:00.466Z,98172.41
2022-07-31T02:39:03.576Z,98181.94
2022-07-31T02:43:08.096Z,98168.81
2022-07-31T02:47:11.979Z,98176.44
2022-07-31T02:51:14.586Z,98164.13
2022-07-31T02:55:18.702Z,98183.25
2022-07-31T02:59:22.341Z,98173.47
2022-07-31T03:03:34.915Z,98177.09
2022-07-31T03:07:36.979Z,98171.31
2022-07-31T03:11:39.718Z,98168.66
2022-07-31T03:15:43.087Z,98163.47
2022-07-31T03:19:53.778Z,98163.97
2022-07-31T03:23:56.168Z,98165.22
2022-07-31T03:28:00.110Z,98156.63
2022-07-31T03:32:02.934Z,98159.28
2022-07-31T03:36:05.745Z,98157.13
2022-07-31T03:40:08.971Z,98163.97
2022-07-31T03:44:11.599Z,98166.94
2022-07-31T03:48:14.398Z,98168.84
2022-07-31T03:52:16.529Z,98174.84
2022-07-31T03:56:20.022Z,98180.44
2022-07-31T04:00:27.072Z,98182.81
2022-07-31T04:04:31.131Z,98180.44
2022-07-31T04:08:35.858Z,98185.34
2022-07-31T04:12:38.165Z,98179.84
2022-07-31T04:16:40.204Z,98188.47
2022-07-31T04:20:42.817Z,98194.16
2022-07-31T04:24:45.744Z,98192.69
2022-07-31T04:29:21.192Z,98190.47
2022-07-31T04:33:23.273Z,98183.22
2022-07-31T04:37:25.385Z,98183.16
2022-07-31T04:41:28.141Z,98179.91
2022-07-31T04:45:30.855Z,98186.22
2022-07-31T04:49:33.260Z,98184.72
2022-07-31T04:53:38.408Z,98188.38
2022-07-31T04:57:40.866Z,98182.47
2022-07-31T05:01:44.687Z,98173.25
2022-07-31T05:05:49.944Z,98179.03
2022-07-31T05:09:52.601Z,98178.56
2022-07-31T05:13:56.810Z,98177.03
2022-07-31T05:17:58.823Z,98179.75
2022-07-31T05:22:29.621Z,98180.81
2022-07-31T05:26:45.745Z,98175.94
2022-07-31T05:30:47.746Z,98171.63
2022-07-31T05:34:49.925Z,98179.97
2022-07-31T05:38:51.995Z,98178.25
2022-07-31T05:43:16.590Z,98183.13
2022-07-31T05:47:40.103Z,98166.75
2022-07-31T05:51:44.679Z,98169.75
2022-07-31T05:55:49.635Z,98174.31
2022-07-31T06:00:05.972Z,98164.09
2022-07-31T06:04:18.834Z,98171.34
2022-07-31T06:08:22.860Z,98175.34
2022-07-31T06:12:25.870Z,98173.81
2022-07-31T06:16:27.917Z,98170.53
2022-07-31T06:20:30.671Z,98176.09
2022-07-31T06:24:33.534Z,98179.16
2022-07-31T06:28:46.561Z,98177.06
2022-07-31T06:32:49.910Z,98174.69
2022-07-31T06:36:52.016Z,98172.63
2022-07-31T06:40:57.119Z,98178.69
2022-07-31T06:45:25.076Z,98181.22
2022-07-31T06:49:56.126Z,98173.31
2022-07-31T06:54:04.011Z,98182.28
2022-07-31T06:58:06.148Z,98174.53
2022-07-31T07:02:08.688Z,98171.63
2022-07-31T07:06:11.261Z,98178.13
2022-07-31T07:10:13.598Z,98172.66
2022-07-31T07:14:33.700Z,98159.56
2022-07-31T07:18:37.057Z,98155.59
2022-07-31T07:22:39.137Z,98156.03
2022-07-31T07:26:41.995Z,98158.34
2022-07-31T07:30:44.241Z,98167.78
2022-07-31T07:34:47.730Z,98155.25
2022-07-31T07:39:21.865Z,98154.44
2022-07-31T07:43:24.621Z,98152.16
2022-07-31T07:47:26.709Z,98150.94
2022-07-31T07:52:10.089Z,98148.25
2022-07-31T07:56:13.944Z,98141.38
2022-07-31T08:00:36.280Z,98139.13
2022-07-31T08:04:39.546Z,98130.06
2022-07-31T08:08:41.749Z,98126.16
2022-07-31T08:13:03.709Z,98135.25
2022-07-31T08:17:28.743Z,98139.19
2022-07-31T08:21:31.737Z,98134.38
2022-07-31T08:25:33.802Z,98137.34
2022-07-31T08:29:37.915Z,98138.66
2022-07-31T08:33:52.893Z,98140.34
2022-07-31T08:38:02.175Z,98126.22
2022-07-31T08:42:10.032Z,98129.97
2022-07-31T08:46:13.191Z,98126.28
2022-07-31T08:50:16.278Z,98115.22
2022-07-31T08:54:19.679Z,98107.88
2022-07-31T08:58:21.765Z,98117.97
2022-07-31T09:02:26.581Z,98108.50
2022-07-31T09:06:51.707Z,98111.63
2022-07-31T09:11:09.513Z,98102.38
2022-07-31T09:15:29.593Z,98090.34
2022-07-31T09:19:51.702Z,98097.81
2022-07-31T09:24:00.213Z,98089.63
2022-07-31T09:28:06.993Z,98097.25
2022-07-31T09:32:10.045Z,98089.47
2022-07-31T09:36:34.875Z,98085.13
2022-07-31T09:40:57.136Z,98078.75
2022-07-31T09:45:25.631Z,98076.72
2022-07-31T09:49:33.953Z,98074.53
2022-07-31T09:53:50.245Z,98084.81
2022-07-31T09:58:27.505Z,98069.63
2022-07-31T10:02:29.941Z,98065.91
2022-07-31T10:06:35.180Z,98074.84
2022-07-31T10:10:38.447Z,98068.94
2022-07-31T10:15:03.025Z,98057.69
2022-07-31T10:19:11.379Z,98064.63
2022-07-31T10:23:34.937Z,98059.88
2022-07-31T10:27:40.725Z,98058.47
2022-07-31T10:31:47.514Z,98056.09
2022-07-31T10:36:05.031Z,98047.81
2022-07-31T10:40:41.791Z,98043.06
2022-07-31T10:44:55.411Z,98045.88
2022-07-31T10:49:08.438Z,98041.72
2022-07-31T10:53:51.172Z,98031.97
2022-07-31T10:58:17.384Z,98027.44
2022-07-31T11:02:32.762Z,98025.59
2022-07-31T11:06:53.855Z,98032.13
2022-07-31T11:11:18.563Z,98030.72
2022-07-31T11:15:30.666Z,98031.41
2022-07-31T11:20:20.393Z,98027.38
2022-07-31T11:24:26.246Z,98031.34
2022-07-31T11:28:29.149Z,98033.25
2022-07-31T11:32:31.158Z,98035.47
2022-07-31T11:36:33.199Z,98031.66
2022-07-31T11:40:35.315Z,98030.59
2022-07-31T11:44:37.362Z,98027.59
2022-07-31T11:48:44.881Z,98016.50
2022-07-31T11:52:48.075Z,98022.09
2022-07-31T11:56:53.427Z,98005.44
2022-07-31T12:00:58.002Z,97999.03
2022-07-31T12:05:04.258Z,97999.66
2022-07-31T12:09:06.637Z,97983.13
2022-07-31T12:13:20.345Z,97981.00
2022-07-31T12:17:23.022Z,97979.69
2022-07-31T12:21:36.381Z,97967.50
2022-07-31T12:25:46.348Z,97960.75
2022-07-31T12:29:48.397Z,97950.63
2022-07-31T12:33:50.457Z,97961.09
2022-07-31T12:37:53.866Z,97945.53
2022-07-31T12:41:56.735Z,97943.22
2022-07-31T12:46:02.817Z,97938.25
2022-07-31T12:50:05.277Z,97944.41
2022-07-31T12:54:08.907Z,97940.22
2022-07-31T12:58:11.009Z,97924.13
2022-07-31T13:02:13.219Z,97925.59
2022-07-31T13:06:15.281Z,97933.28
2022-07-31T13:10:21.145Z,97924.84
2022-07-31T13:14:26.443Z,97919.28
2022-07-31T13:18:30.038Z,97913.03
2022-07-31T13:22:32.322Z,97914.69
2022-07-31T13:26:38.254Z,97911.06
2022-07-31T13:30:40.389Z,97912.28
2022-07-31T13:34:42.483Z,97904.72
2022-07-31T13:38:44.571Z,97903.91
2022-07-31T13:42:46.580Z,97902.91
2022-07-31T13:46:48.578Z,97892.94
2022-07-31T13:50:50.607Z,97898.13
2022-07-31T13:54:52.667Z,97893.28
2022-07-31T13:58:55.199Z,97893.34
2022-07-31T14:02:58.015Z,97894.69
2022-07-31T14:07:04.223Z,97898.56
2022-07-31T14:11:13.694Z,97893.09
2022-07-31T14:15:18.312Z,97892.44
2022-07-31T14:19:20.904Z,97889.00
2022-07-31T14:23:31.632Z,97886.59
2022-07-31T14:27:38.666Z,97885.47
2022-07-31T14:31:40.741Z,97884.34
2022-07-31T14:35:42.836Z,97874.00
2022-07-31T14:39:44.979Z,97881.75
2022-07-31T14:43:46.991Z,97886.47
2022-07-31T14:47:50.182Z,97876.41
2022-07-31T14:51:52.412Z,97859.44
2022-07-31T14:55:54.455Z,97858.22
2022-07-31T15:00:12.778Z,97850.91
2022-07-31T15:04:14.854Z,97852.94
2022-07-31T15:08:16.935Z,97859.31
2022-07-31T15:12:19.780Z,97858.00
2022-07-31T15:16:21.847Z,97850.28
2022-07-31T15:20:30.093Z,97849.47
2022-07-31T15:24:35.476Z,97845.84
2022-07-31T15:28:37.643Z,97846.75
2022-07-31T15:32:40.254Z,97839.44
2022-07-31T15:36:42.350Z,97834.78
2022-07-31T15:40:46.963Z,97832.22
2022-07-31T15:44:49.155Z,97823.22
2022-07-31T15:48:52.147Z,97815.28
2022-07-31T15:52:54.286Z,97820.19
2022-07-31T15:56:56.650Z,97816.44
2022-07-31T16:00:58.879Z,97815.47
2022-07-31T16:05:11.776Z,97817.00
2022-07-31T16:09:24.025Z,97807.53
2022-07-31T16:13:26.161Z,97816.59
2022-07-31T16:17:37.700Z,97811.47
2022-07-31T16:21:40.591Z,97799.81
2022-07-31T16:25:42.607Z,97801.22
2022-07-31T16:29:59.793Z,97801.22
2022-07-31T16:34:04.291Z,97791.78
2022-07-31T16:38:07.523Z,97795.66
2022-07-31T16:42:09.554Z,97786.06
2022-07-31T16:46:11.808Z,97780.94
2022-07-31T16:50:13.872Z,97778.06
2022-07-31T16:54:16.403Z,97782.25
2022-07-31T16:58:18.753Z,97779.28
2022-07-31T17:02:27.376Z,97784.75
2022-07-31T17:06:35.171Z,97773.69
2022-07-31T17:10:39.592Z,97775.06
2022-07-31T17:14:43.803Z,97775.16
2022-07-31T17:18:52.611Z,97766.84
2022-07-31T17:22:56.725Z,97781.59
2022-07-31T17:26:59.687Z,97790.25
2022-07-31T17:31:04.903Z,97786.69
2022-07-31T17:35:08.052Z,97787.44
2022-07-31T17:39:16.857Z,97795.59
2022-07-31T17:43:19.502Z,97798.59
2022-07-31T17:47:30.185Z,97799.97
2022-07-31T17:51:32.305Z,97803.94
2022-07-31T17:55:34.342Z,97801.22
2022-07-31T17:59:36.385Z,97807.31
2022-07-31T18:03:38.419Z,97804.84
2022-07-31T18:07:40.537Z,97806.88
2022-07-31T18:11:42.574Z,97798.47
2022-07-31T18:15:44.602Z,97818.31
2022-07-31T18:19:47.706Z,97822.25
2022-07-31T18:23:49.749Z,97824.44
2022-07-31T18:27:52.427Z,97818.06
2022-07-31T18:31:54.506Z,97825.94
2022-07-31T18:35:56.548Z,97826.31
2022-07-31T18:39:59.086Z,97821.75
2022-07-31T18:44:04.588Z,97831.69
2022-07-31T18:48:07.014Z,97834.38
2022-07-31T18:52:12.691Z,97842.44
2022-07-31T18:56:17.808Z,97841.88
2022-07-31T19:00:19.887Z,97829.44
2022-07-31T19:04:22.437Z,97842.88
2022-07-31T19:08:24.798Z,97837.84
2022-07-31T19:12:26.820Z,97835.44
2022-07-31T19:16:29.211Z,97837.44
2022-07-31T19:20:56.356Z,97847.59
2022-07-31T19:24:54.770Z,97851.41
2022-07-31T19:28:56.934Z,97857.09
2022-07-31T19:32:59.016Z,97861.22
2022-07-31T19:37:01.085Z,97865.84
2022-07-31T19:41:03.963Z,97869.63
2022-07-31T19:45:06.426Z,97876.09
2022-07-31T19:49:08.580Z,97884.22
2022-07-31T19:53:10.689Z,97883.84
2022-07-31T19:57:13.913Z,97884.47
2022-07-31T20:01:16.646Z,97885.78
2022-07-31T20:05:18.721Z,97888.06
2022-07-31T20:09:21.813Z,97888.00
2022-07-31T20:13:24.817Z,97893.97
2022-07-31T20:17:27.208Z,97886.88
2022-07-31T20:21:34.924Z,97892.84
2022-07-31T20:25:39.212Z,97884.44
2022-07-31T20:29:41.298Z,97892.72
2022-07-31T20:33:48.906Z,97886.16
2022-07-31T20:38:00.631Z,97892.97
2022-07-31T20:42:03.288Z,97892.88
2022-07-31T20:46:05.669Z,97894.59
2022-07-31T20:50:09.310Z,97898.44
2022-07-31T20:54:12.028Z,97888.72
2022-07-31T20:58:14.146Z,97905.25
2022-07-31T21:02:16.204Z,97896.28
2022-07-31T21:06:21.947Z,97894.19
2022-07-31T21:10:28.172Z,97893.25
2022-07-31T21:14:31.517Z,97901.91
2022-07-31T21:18:34.924Z,97908.78
2022-07-31T21:22:37.907Z,97903.19
2022-07-31T21:26:41.614Z,97921.91
2022-07-31T21:30:43.803Z,97917.16
2022-07-31T21:34:46.062Z,97913.38
2022-07-31T21:38:48.317Z,97918.16
2022-07-31T21:42:55.133Z,97915.66
2022-07-31T21:47:01.810Z,97919.59
2022-07-31T21:51:06.055Z,97920.03
2022-07-31T21:55:08.675Z,97922.44
2022-07-31T21:59:13.243Z,97923.00
2022-07-31T22:03:15.352Z,97934.00
2022-07-31T22:07:32.604Z,97924.59
2022-07-31T22:11:35.747Z,97936.13
2022-07-31T22:15:52.672Z,97939.25
2022-07-31T22:20:00.554Z,97946.72
2022-07-31T22:24:03.236Z,97947.81
2022-07-31T22:28:05.951Z,97951.19
2022-07-31T22:32:08.769Z,97961.56
2022-07-31T22:36:11.203Z,97960.75
2022-07-31T22:40:14.836Z,97956.25
2022-07-31T22:44:19.015Z,97956.81
2022-07-31T22:48:26.771Z,97961.84
2022-07-31T22:52:34.503Z,97965.22
2022-07-31T22:56:38.523Z,97970.28
2022-07-31T23:00:41.928Z,97973.66
2022-07-31T23:04:44.101Z,97974.19
2022-07-31T23:08:46.137Z,97976.56
2022-07-31T23:12:52.443Z,97977.25
2022-07-31T23:16:54.521Z,97982.25
2022-07-31T23:20:58.057Z,97981.41
2022-07-31T23:25:00.474Z,97993.34
2022-07-31T23:29:03.072Z,97987.00
2022-07-31T23:33:05.103Z,97994.00
2022-07-31T23:37:09.206Z,97982.31
2022-07-31T23:41:11.727Z,97989.47
2022-07-31T23:45:13.823Z,97982.44
2022-07-31T23:49:17.753Z,97965.28
2022-07-31T23:53:19.891Z,97974.88
2022-07-31T23:57:21.974Z,97977.41
